sensor_id;sensor_type;location;lat;lon;timestamp;temperature;humidity
14154;DHT22;7157;53.144;7.570;2022-12-04T00:01:28;1.61;81.72
14154;DHT22;7157;53.144;7.570;2022-12-04T00:11:32;1.69;81.54
14154;DHT22;7157;53.144;7.570;2022-12-04T00:21:36;1.64;81.28
14154;DHT22;7157;53.144;7.570;2022-12-04T00:31:39;1.58;81.75
14154;DHT22;7157;53.144;7.570;2022-12-04T00:41:43;1.70;81.55
14154;DHT22;7157;53.144;7.570;2022-12-04T00:51:46;1.60;81.77
14154;DHT22;7157;53.144;7.570;2022-12-04T01:01:50;1.58;81.82
14154;DHT22;7157;53.144;7.570;2022-12-04T01:11:52;1.55;81.88
14154;DHT22;7157;53.144;7.570;2022-12-04T01:21:56;1.39;81.61
14154;DHT22;7157;53.144;7.570;2022-12-04T01:31:59;1.28;82.03
14154;DHT22;7157;53.144;7.570;2022-12-04T01:42:04;1.20;82.46
14154;DHT22;7157;53.144;7.570;2022-12-04T01:52:10;1.40;82.24
14154;DHT22;7157;53.144;7.570;2022-12-04T02:02:20;1.28;82.51
14154;DHT22;7157;53.144;7.570;2022-12-04T02:12:30;1.23;82.51
14154;DHT22;7157;53.144;7.570;2022-12-04T02:22:53;1.41;82.49
14154;DHT22;7157;53.144;7.570;2022-12-04T02:33:06;1.49;82.33
14154;DHT22;7157;53.144;7.570;2022-12-04T02:43:13;1.35;82.59
14154;DHT22;7157;53.144;7.570;2022-12-04T02:53:20;1.29;83.26
14154;DHT22;7157;53.144;7.570;2022-12-04T03:03:27;1.38;83.23
14154;DHT22;7157;53.144;7.570;2022-12-04T03:13:35;1.39;83.09
14154;DHT22;7157;53.144;7.570;2022-12-04T03:23:43;1.40;83.16
14154;DHT22;7157;53.144;7.570;2022-12-04T03:33:50;1.38;83.23
14154;DHT22;7157;53.144;7.570;2022-12-04T03:43:58;1.32;83.45
14154;DHT22;7157;53.144;7.570;2022-12-04T03:54:07;1.47;83.26
14154;DHT22;7157;53.144;7.570;2022-12-04T04:04:14;1.48;83.13
14154;DHT22;7157;53.144;7.570;2022-12-04T04:14:23;1.49;83.01
14154;DHT22;7157;53.144;7.570;2022-12-04T04:24:49;1.58;83.24
14154;DHT22;7157;53.144;7.570;2022-12-04T04:34:58;1.56;83.32
14154;DHT22;7157;53.144;7.570;2022-12-04T04:45:07;1.61;83.45
14154;DHT22;7157;53.144;7.570;2022-12-04T04:55:15;1.54;83.76
14154;DHT22;7157;53.144;7.570;2022-12-04T05:05:19;1.53;83.84
14154;DHT22;7157;53.144;7.570;2022-12-04T05:15:23;1.51;84.75
14154;DHT22;7157;53.144;7.570;2022-12-04T05:25:26;1.49;84.97
14154;DHT22;7157;53.144;7.570;2022-12-04T05:35:30;1.51;85.38
14154;DHT22;7157;53.144;7.570;2022-12-04T05:45:32;1.56;85.21
14154;DHT22;7157;53.144;7.570;2022-12-04T05:55:37;1.52;85.86
14154;DHT22;7157;53.144;7.570;2022-12-04T06:05:39;1.54;86.12
14154;DHT22;7157;53.144;7.570;2022-12-04T06:15:43;1.65;85.90
14154;DHT22;7157;53.144;7.570;2022-12-04T06:25:46;1.60;86.41
14154;DHT22;7157;53.144;7.570;2022-12-04T06:35:58;1.66;86.29
14154;DHT22;7157;53.144;7.570;2022-12-04T06:46:01;1.76;86.45
14154;DHT22;7157;53.144;7.570;2022-12-04T06:56:08;1.75;86.60
14154;DHT22;7157;53.144;7.570;2022-12-04T07:06:13;1.76;86.91
14154;DHT22;7157;53.144;7.570;2022-12-04T07:16:20;1.71;86.88
14154;DHT22;7157;53.144;7.570;2022-12-04T07:26:24;1.80;86.90
14154;DHT22;7157;53.144;7.570;2022-12-04T07:36:28;1.96;86.70
14154;DHT22;7157;53.144;7.570;2022-12-04T07:46:30;1.96;86.50
14154;DHT22;7157;53.144;7.570;2022-12-04T07:56:35;2.08;86.34
14154;DHT22;7157;53.144;7.570;2022-12-04T08:06:38;2.16;86.45
14154;DHT22;7157;53.144;7.570;2022-12-04T08:16:42;2.19;86.32
14154;DHT22;7157;53.144;7.570;2022-12-04T08:26:52;2.37;85.92
14154;DHT22;7157;53.144;7.570;2022-12-04T08:36:57;2.47;85.51
14154;DHT22;7157;53.144;7.570;2022-12-04T08:46:59;2.57;85.36
14154;DHT22;7157;53.144;7.570;2022-12-04T08:57:04;2.62;85.40
14154;DHT22;7157;53.144;7.570;2022-12-04T09:07:06;2.72;85.09
14154;DHT22;7157;53.144;7.570;2022-12-04T09:17:10;2.79;84.68
14154;DHT22;7157;53.144;7.570;2022-12-04T09:27:13;2.88;84.12
14154;DHT22;7157;53.144;7.570;2022-12-04T09:37:18;2.91;83.74
14154;DHT22;7157;53.144;7.570;2022-12-04T09:47:25;3.11;83.37
14154;DHT22;7157;53.144;7.570;2022-12-04T09:57:35;3.05;82.55
14154;DHT22;7157;53.144;7.570;2022-12-04T10:07:41;3.19;81.88
14154;DHT22;7157;53.144;7.570;2022-12-04T10:17:58;3.26;81.88
14154;DHT22;7157;53.144;7.570;2022-12-04T10:28:18;3.35;81.49
14154;DHT22;7157;53.144;7.570;2022-12-04T10:38:29;3.46;81.24
14154;DHT22;7157;53.144;7.570;2022-12-04T10:48:36;3.40;81.36
14154;DHT22;7157;53.144;7.570;2022-12-04T10:58:41;3.46;81.36
14154;DHT22;7157;53.144;7.570;2022-12-04T11:08:49;3.56;81.14
14154;DHT22;7157;53.144;7.570;2022-12-04T11:18:54;3.55;81.31
14154;DHT22;7157;53.144;7.570;2022-12-04T11:28:59;3.50;81.49
14154;DHT22;7157;53.144;7.570;2022-12-04T11:39:06;3.58;81.54
14154;DHT22;7157;53.144;7.570;2022-12-04T11:49:20;3.56;82.19
14154;DHT22;7157;53.144;7.570;2022-12-04T11:59:48;3.62;82.02
14154;DHT22;7157;53.144;7.570;2022-12-04T12:09:58;3.64;82.29
14154;DHT22;7157;53.144;7.570;2022-12-04T12:20:13;3.76;82.26
14154;DHT22;7157;53.144;7.570;2022-12-04T12:30:18;3.78;82.41
14154;DHT22;7157;53.144;7.570;2022-12-04T12:40:29;3.77;82.87
14154;DHT22;7157;53.144;7.570;2022-12-04T12:50:40;3.76;83.12
14154;DHT22;7157;53.144;7.570;2022-12-04T13:00:48;3.61;83.87
14154;DHT22;7157;53.144;7.570;2022-12-04T13:11:01;3.47;84.63
14154;DHT22;7157;53.144;7.570;2022-12-04T13:21:07;3.43;84.78
14154;DHT22;7157;53.144;7.570;2022-12-04T13:31:22;3.57;84.34
14154;DHT22;7157;53.144;7.570;2022-12-04T13:41:31;3.65;84.19
14154;DHT22;7157;53.144;7.570;2022-12-04T13:51:37;3.74;83.95
14154;DHT22;7157;53.144;7.570;2022-12-04T14:01:45;3.80;84.00
14154;DHT22;7157;53.144;7.570;2022-12-04T14:11:51;3.80;84.26
14154;DHT22;7157;53.144;7.570;2022-12-04T14:21:57;3.91;84.35
14154;DHT22;7157;53.144;7.570;2022-12-04T14:32:07;3.86;84.74
14154;DHT22;7157;53.144;7.570;2022-12-04T14:42:15;3.84;85.32
14154;DHT22;7157;53.144;7.570;2022-12-04T14:52:25;3.94;85.23
14154;DHT22;7157;53.144;7.570;2022-12-04T15:02:34;3.86;86.03
14154;DHT22;7157;53.144;7.570;2022-12-04T15:12:46;3.93;86.18
14154;DHT22;7157;53.144;7.570;2022-12-04T15:22:52;3.97;86.14
14154;DHT22;7157;53.144;7.570;2022-12-04T15:32:58;3.97;86.27
14154;DHT22;7157;53.144;7.570;2022-12-04T15:43:15;3.98;86.12
14154;DHT22;7157;53.144;7.570;2022-12-04T15:53:23;4.05;85.68
14154;DHT22;7157;53.144;7.570;2022-12-04T16:03:30;4.15;85.57
14154;DHT22;7157;53.144;7.570;2022-12-04T16:13:35;4.16;85.22
14154;DHT22;7157;53.144;7.570;2022-12-04T16:23:39;4.13;85.78
14154;DHT22;7157;53.144;7.570;2022-12-04T16:33:42;4.16;85.78
14154;DHT22;7157;53.144;7.570;2022-12-04T16:43:52;4.26;85.71
14154;DHT22;7157;53.144;7.570;2022-12-04T16:53:55;4.27;86.08
14154;DHT22;7157;53.144;7.570;2022-12-04T17:03:59;4.31;86.11
14154;DHT22;7157;53.144;7.570;2022-12-04T17:14:02;4.36;86.18
14154;DHT22;7157;53.144;7.570;2022-12-04T17:24:09;4.46;86.12
14154;DHT22;7157;53.144;7.570;2022-12-04T17:34:11;4.47;86.38
14154;DHT22;7157;53.144;7.570;2022-12-04T17:44:15;4.53;86.60
14154;DHT22;7157;53.144;7.570;2022-12-04T17:54:18;4.58;86.85
14154;DHT22;7157;53.144;7.570;2022-12-04T18:04:22;4.61;87.33
14154;DHT22;7157;53.144;7.570;2022-12-04T18:14:25;4.67;87.02
14154;DHT22;7157;53.144;7.570;2022-12-04T18:24:29;4.64;87.17
14154;DHT22;7157;53.144;7.570;2022-12-04T18:34:32;4.72;86.83
14154;DHT22;7157;53.144;7.570;2022-12-04T18:44:37;4.80;86.91
14154;DHT22;7157;53.144;7.570;2022-12-04T18:54:40;4.84;86.96
14154;DHT22;7157;53.144;7.570;2022-12-04T19:04:44;4.82;87.39
14154;DHT22;7157;53.144;7.570;2022-12-04T19:14:47;4.87;87.44
14154;DHT22;7157;53.144;7.570;2022-12-04T19:24:51;4.89;87.44
14154;DHT22;7157;53.144;7.570;2022-12-04T19:34:54;4.93;87.31
14154;DHT22;7157;53.144;7.570;2022-12-04T19:44:58;4.94;87.60
14154;DHT22;7157;53.144;7.570;2022-12-04T19:55:01;5.05;87.44
14154;DHT22;7157;53.144;7.570;2022-12-04T20:05:05;5.07;87.34
14154;DHT22;7157;53.144;7.570;2022-12-04T20:15:08;5.11;87.33
14154;DHT22;7157;53.144;7.570;2022-12-04T20:25:13;5.15;87.64
14154;DHT22;7157;53.144;7.570;2022-12-04T20:35:15;5.20;87.67
14154;DHT22;7157;53.144;7.570;2022-12-04T20:45:20;5.21;87.93
14154;DHT22;7157;53.144;7.570;2022-12-04T20:55:22;5.24;87.94
14154;DHT22;7157;53.144;7.570;2022-12-04T21:05:27;5.31;88.18
14154;DHT22;7157;53.144;7.570;2022-12-04T21:15:29;5.27;88.35
14154;DHT22;7157;53.144;7.570;2022-12-04T21:25:53;5.33;88.25
14154;DHT22;7157;53.144;7.570;2022-12-04T21:36:00;5.27;88.60
14154;DHT22;7157;53.144;7.570;2022-12-04T21:46:06;5.34;88.25
14154;DHT22;7157;53.144;7.570;2022-12-04T21:56:10;5.40;87.94
14154;DHT22;7157;53.144;7.570;2022-12-04T22:06:14;5.48;87.73
14154;DHT22;7157;53.144;7.570;2022-12-04T22:16:17;5.50;87.41
14154;DHT22;7157;53.144;7.570;2022-12-04T22:26:31;5.52;87.54
14154;DHT22;7157;53.144;7.570;2022-12-04T22:36:34;5.56;87.55
14154;DHT22;7157;53.144;7.570;2022-12-04T22:46:38;5.52;87.96
14154;DHT22;7157;53.144;7.570;2022-12-04T22:56:41;5.56;87.91
14154;DHT22;7157;53.144;7.570;2022-12-04T23:06:46;5.55;88.33
14154;DHT22;7157;53.144;7.570;2022-12-04T23:16:49;5.64;88.11
14154;DHT22;7157;53.144;7.570;2022-12-04T23:26:53;5.71;87.77
14154;DHT22;7157;53.144;7.570;2022-12-04T23:36:56;5.80;87.92
14154;DHT22;7157;53.144;7.570;2022-12-04T23:47:00;5.77;88.72
14154;DHT22;7157;53.144;7.570;2022-12-04T23:57:03;5.85;88.80
